| time (UTC) | temp F | wind direction | speed MPH | gust MPH | rain 1hr in | rain 24hr in | rain mn in | humidity % | barometer mb |
| 20260505075038 | 57 | 0 | 0.0 | 3.0 | 0.00 | 0.00 | 0.00 | 64 | 1013.4 |
| 20260505074551 | 57 | 0 | 0.0 | 3.0 | 0.00 | 0.00 | 0.00 | 63 | 1013.5 |
| 20260505074038 | 58 | 0 | 0.0 | 2.0 | 0.00 | 0.00 | 0.00 | 63 | 1013.4 |
| 20260505073538 | 58 | 0 | 0.0 | 2.0 | 0.00 | 0.00 | 0.00 | 63 | 1013.6 |
| 20260505073053 | 58 | 0 | 0.0 | 2.0 | 0.00 | 0.00 | 0.00 | 63 | 1013.6 |
| 20260505072538 | 58 | 0 | 0.0 | 2.0 | 0.00 | 0.00 | 0.00 | 63 | 1013.5 |
| 20260505072040 | 58 | 0 | 0.0 | 2.0 | 0.00 | 0.00 | 0.00 | 63 | 1013.6 |
| 20260505071546 | 58 | 0 | 0.0 | 1.0 | 0.00 | 0.00 | 0.00 | 62 | 1013.6 |
| 20260505071038 | 58 | 0 | 0.0 | 4.0 | 0.00 | 0.00 | 0.00 | 62 | 1013.8 |
| 20260505070538 | 58 | 0 | 0.0 | 4.0 | 0.00 | 0.00 | 0.00 | 62 | 1013.7 |
| 20260505070054 | 59 | 0 | 0.0 | 4.0 | 0.00 | 0.00 | 0.00 | 62 | 1013.8 |
| 20260505065540 | 59 | 0 | 0.0 | 4.0 | 0.00 | 0.00 | 0.00 | 62 | 1013.6 |
| 20260505065038 | 59 | 0 | 0.0 | 3.0 | 0.00 | 0.00 | 0.00 | 62 | 1013.8 |
| 20260505064553 | 59 | 0 | 0.0 | 5.0 | 0.00 | 0.00 | 0.00 | 62 | 1013.7 |
| 20260505064037 | 59 | 0 | 0.0 | 10.0 | 0.00 | 0.00 | 0.00 | 62 | 1013.7 |
| 20260505063538 | 59 | 0 | 0.0 | 10.0 | 0.00 | 0.00 | 0.00 | 61 | 1013.7 |
| 20260505063108 | 59 | 0 | 0.0 | 7.0 | 0.00 | 0.00 | 0.00 | 62 | 1013.8 |
| 20260505062541 | 59 | 0 | 0.0 | 10.0 | 0.00 | 0.00 | 0.00 | 62 | 1013.6 |
| 20260505062038 | 59 | 231 | 0.0 | 10.0 | 0.00 | 0.00 | 0.00 | 62 | 1013.4 |
| 20260505061552 | 60 | 174 | 0.0 | 8.0 | 0.00 | 0.00 | 0.00 | 62 | 1013.7 |
| 20260505061042 | 60 | 0 | 0.0 | 7.0 | 0.00 | 0.00 | 0.00 | 61 | 1013.6 |
| 20260505060538 | 60 | 263 | 0.0 | 7.0 | 0.00 | 0.00 | 0.00 | 61 | 1013.7 |
| 20260505060049 | 60 | 226 | 0.0 | 7.0 | 0.00 | 0.00 | 0.00 | 61 | 1013.6 |
| 20260505055538 | 60 | 190 | 0.0 | 7.0 | 0.00 | 0.00 | 0.00 | 61 | 1013.5 |
| 20260505055039 | 60 | 188 | 1.0 | 7.0 | 0.00 | 0.00 | 0.00 | 61 | 1013.7 |
| 20260505054608 | 60 | 0 | 0.0 | 7.0 | 0.00 | 0.00 | 0.00 | 61 | 1013.6 |
| 20260505054038 | 60 | 201 | 1.0 | 7.0 | 0.00 | 0.00 | 0.00 | 61 | 1013.5 |
| 20260505053538 | 60 | 0 | 0.0 | 8.0 | 0.00 | 0.00 | 0.00 | 61 | 1013.6 |
| 20260505053058 | 60 | 0 | 1.0 | 8.0 | 0.00 | 0.00 | 0.00 | 61 | 1013.6 |
| 20260505052538 | 60 | 259 | 0.0 | 6.0 | 0.00 | 0.00 | 0.00 | 61 | 1013.6 |
| 20260505052038 | 60 | 0 | 0.0 | 6.0 | 0.00 | 0.00 | 0.00 | 61 | 1013.6 |
| 20260505051549 | 60 | 0 | 0.0 | 6.0 | 0.00 | 0.00 | 0.00 | 61 | 1013.7 |
| 20260505051039 | 60 | 254 | 0.0 | 6.0 | 0.00 | 0.00 | 0.00 | 60 | 1013.7 |
| 20260505050538 | 60 | 0 | 0.0 | 5.0 | 0.00 | 0.00 | 0.00 | 60 | 1013.6 |
| 20260505041556 | 61 | 0 | 0.0 | 4.0 | 0.00 | 0.00 | 0.00 | 59 | 1013.4 |
| 20260505041039 | 61 | 0 | 0.0 | 4.0 | 0.00 | 0.00 | 0.00 | 59 | 1013.3 |
| 20260505040539 | 61 | 229 | 0.0 | 7.0 | 0.00 | 0.00 | 0.00 | 59 | 1013.4 |
| 20260505040054 | 61 | 0 | 0.0 | 7.0 | 0.00 | 0.00 | 0.00 | 59 | 1013.3 |
| 20260505035539 | 61 | 0 | 0.0 | 5.0 | 0.00 | 0.00 | 0.00 | 59 | 1013.4 |
| 20260505035038 | 61 | 267 | 0.0 | 7.0 | 0.00 | 0.00 | 0.00 | 59 | 1013.5 |
| 20260505034545 | 61 | 0 | 0.0 | 7.0 | 0.00 | 0.00 | 0.00 | 59 | 1013.5 |
| 20260505034042 | 61 | 176 | 0.0 | 4.0 | 0.00 | 0.00 | 0.00 | 59 | 1013.6 |
| 20260505033539 | 61 | 0 | 0.0 | 2.0 | 0.00 | 0.00 | 0.00 | 58 | 1013.3 |
| 20260505033049 | 62 | 0 | 0.0 | 4.0 | 0.00 | 0.00 | 0.00 | 58 | 1013.3 |
| 20260505032537 | 62 | 0 | 0.0 | 4.0 | 0.00 | 0.00 | 0.00 | 58 | 1013.4 |
| 20260505032038 | 62 | 240 | 0.0 | 4.0 | 0.00 | 0.00 | 0.00 | 57 | 1013.5 |
| 20260505031600 | 62 | 0 | 0.0 | 4.0 | 0.00 | 0.00 | 0.00 | 57 | 1013.6 |
| 20260505031038 | 63 | 0 | 0.0 | 6.0 | 0.00 | 0.00 | 0.00 | 56 | 1013.5 |
| 20260505030539 | 63 | 0 | 1.0 | 6.0 | 0.00 | 0.00 | 0.00 | 56 | 1013.5 |
| 20260505030046 | 63 | 234 | 0.0 | 5.0 | 0.00 | 0.00 | 0.00 | 55 | 1013.6 |
| 20260505025539 | 63 | 0 | 0.0 | 5.0 | 0.00 | 0.00 | 0.00 | 55 | 1013.6 |
| 20260505025041 | 63 | 0 | 0.0 | 5.0 | 0.00 | 0.00 | 0.00 | 55 | 1013.7 |
| 20260505024602 | 63 | 0 | 0.0 | 7.0 | 0.00 | 0.00 | 0.00 | 55 | 1013.6 |
| 20260505024038 | 63 | 184 | 1.0 | 7.0 | 0.00 | 0.00 | 0.00 | 55 | 1013.7 |
| 20260505023540 | 64 | 238 | 0.0 | 5.0 | 0.00 | 0.00 | 0.00 | 54 | 1013.9 |
| 20260505023048 | 64 | 0 | 0.0 | 8.0 | 0.00 | 0.00 | 0.00 | 54 | 1013.8 |
| 20260505022538 | 64 | 0 | 0.0 | 8.0 | 0.00 | 0.00 | 0.00 | 54 | 1013.7 |
| 20260505022037 | 64 | 0 | 1.0 | 8.0 | 0.00 | 0.00 | 0.00 | 54 | 1013.7 |
| 20260505021559 | 64 | 0 | 0.0 | 5.0 | 0.00 | 0.00 | 0.00 | 54 | 1013.7 |
| 20260505021038 | 64 | 194 | 0.0 | 5.0 | 0.00 | 0.00 | 0.00 | 54 | 1013.7 |
| 20260505020538 | 64 | 0 | 0.0 | 5.0 | 0.00 | 0.00 | 0.00 | 54 | 1013.6 |
| 20260505020045 | 64 | 0 | 0.0 | 4.0 | 0.00 | 0.00 | 0.00 | 54 | 1013.6 |
| 20260505015541 | 65 | 0 | 0.0 | 6.0 | 0.00 | 0.00 | 0.00 | 54 | 1013.5 |
| 20260505015041 | 65 | 243 | 0.0 | 6.0 | 0.00 | 0.00 | 0.00 | 54 | 1013.5 |
| 20260505014603 | 65 | 0 | 0.0 | 6.0 | 0.00 | 0.00 | 0.00 | 55 | 1013.4 |
| 20260505014037 | 65 | 0 | 0.0 | 9.0 | 0.00 | 0.00 | 0.00 | 55 | 1013.4 |
| 20260505013538 | 65 | 0 | 1.0 | 10.0 | 0.00 | 0.00 | 0.00 | 54 | 1013.4 |
| 20260505013103 | 65 | 223 | 0.0 | 10.0 | 0.00 | 0.00 | 0.00 | 54 | 1013.4 |
| 20260505012540 | 66 | 0 | 0.0 | 4.0 | 0.00 | 0.00 | 0.00 | 54 | 1013.4 |
| 20260505012039 | 66 | 242 | 0.0 | 12.0 | 0.00 | 0.00 | 0.00 | 54 | 1013.2 |
| 20260505011602 | 66 | 0 | 0.0 | 12.0 | 0.00 | 0.00 | 0.00 | 53 | 1013.3 |
| 20260505011038 | 66 | 0 | 0.0 | 4.0 | 0.00 | 0.00 | 0.00 | 53 | 1013.1 |
| 20260505010538 | 66 | 0 | 0.0 | 4.0 | 0.00 | 0.00 | 0.00 | 52 | 1013.0 |
| 20260505010049 | 66 | 233 | 0.0 | 5.0 | 0.00 | 0.00 | 0.00 | 52 | 1013.0 |
| 20260505010005 | 73 | 317 | 1.0 | 5.0 | 0.00 | 0.00 | 0.00 | 43 | 1016.6 |
| 20260505005538 | 67 | 224 | 0.0 | 8.0 | 0.00 | 0.00 | 0.00 | 52 | 1012.9 |
| 20260505005038 | 67 | 183 | 0.0 | 8.0 | 0.00 | 0.00 | 0.00 | 51 | 1012.9 |
| 20260505004548 | 67 | 233 | 0.0 | 8.0 | 0.00 | 0.00 | 0.00 | 51 | 1012.7 |
| 20260505004505 | 73 | 317 | 1.0 | 5.0 | 0.00 | 0.00 | 0.00 | 43 | 1016.6 |
| 20260505004039 | 68 | 218 | 0.0 | 4.0 | 0.00 | 0.00 | 0.00 | 49 | 1012.8 |
| 20260505004008 | 73 | 317 | 1.0 | 5.0 | 0.00 | 0.00 | 0.00 | 43 | 1016.6 |
| 20260505003539 | 68 | 167 | 0.0 | 5.0 | 0.00 | 0.00 | 0.00 | 49 | 1012.9 |
| 20260505003048 | 68 | 184 | 0.0 | 9.0 | 0.00 | 0.00 | 0.00 | 48 | 1012.8 |
| 20260505002539 | 68 | 0 | 0.0 | 9.0 | 0.00 | 0.00 | 0.00 | 47 | 1012.8 |
| 20260505002039 | 69 | 210 | 0.0 | 5.0 | 0.00 | 0.00 | 0.00 | 47 | 1012.7 |
| 20260505001545 | 69 | 0 | 0.0 | 7.0 | 0.00 | 0.00 | 0.00 | 47 | 1012.7 |
| 20260505001037 | 69 | 0 | 0.0 | 7.0 | 0.00 | 0.00 | 0.00 | 47 | 1012.7 |
| 20260505000538 | 70 | 0 | 0.0 | 3.0 | 0.00 | 0.00 | 0.00 | 47 | 1012.7 |
| 20260505000054 | 70 | 0 | 1.0 | 3.0 | 0.00 | 0.00 | 0.00 | 46 | 1012.7 |
| 20260504235539 | 70 | 0 | 0.0 | 3.0 | 0.00 | 0.00 | 0.00 | 47 | 1012.7 |
| 20260504235039 | 70 | 213 | 0.0 | 4.0 | 0.00 | 0.00 | 0.00 | 47 | 1012.7 |
| 20260504234548 | 71 | 0 | 0.0 | 4.0 | 0.00 | 0.00 | 0.00 | 46 | 1012.7 |
| 20260504234039 | 71 | 0 | 0.0 | 4.0 | 0.00 | 0.00 | 0.00 | 45 | 1012.7 |
| 20260504233538 | 71 | 0 | 0.0 | 4.0 | 0.00 | 0.00 | 0.00 | 45 | 1012.6 |
| 20260504233058 | 71 | 0 | 0.0 | 5.0 | 0.00 | 0.00 | 0.00 | 45 | 1012.6 |
| 20260504232539 | 72 | 0 | 0.0 | 7.0 | 0.00 | 0.00 | 0.00 | 45 | 1012.6 |
| 20260504232040 | 72 | 0 | 1.0 | 7.0 | 0.00 | 0.00 | 0.00 | 45 | 1012.6 |
| 20260504231548 | 72 | 0 | 0.0 | 4.0 | 0.00 | 0.00 | 0.00 | 45 | 1012.7 |
| 20260504231039 | 72 | 0 | 0.0 | 3.0 | 0.00 | 0.00 | 0.00 | 44 | 1012.7 |
| 20260504230538 | 72 | 0 | 0.0 | 2.0 | 0.00 | 0.00 | 0.00 | 45 | 1012.5 |
| 20260504230046 | 73 | 0 | 0.0 | 3.0 | 0.00 | 0.00 | 0.00 | 45 | 1012.5 |
| 20260504225538 | 73 | 0 | 0.0 | 3.0 | 0.00 | 0.00 | 0.00 | 44 | 1012.6 |
| 20260504225038 | 73 | 0 | 0.0 | 3.0 | 0.00 | 0.00 | 0.00 | 43 | 1012.5 |
| 20260504224543 | 73 | 274 | 0.0 | 6.0 | 0.00 | 0.00 | 0.00 | 44 | 1012.6 |
| 20260504224038 | 73 | 0 | 0.0 | 8.0 | 0.00 | 0.00 | 0.00 | 43 | 1012.7 |
| 20260504223538 | 73 | 0 | 1.0 | 8.0 | 0.00 | 0.00 | 0.00 | 43 | 1012.7 |
| 20260504223100 | 73 | 0 | 1.0 | 8.0 | 0.00 | 0.00 | 0.00 | 43 | 1012.7 |
| 20260504222538 | 73 | 156 | 1.0 | 12.0 | 0.00 | 0.00 | 0.00 | 42 | 1012.9 |
| 20260504222038 | 74 | 163 | 1.0 | 12.0 | 0.00 | 0.00 | 0.00 | 42 | 1012.9 |
| 20260504221539 | 74 | 186 | 0.0 | 8.0 | 0.00 | 0.00 | 0.00 | 41 | 1012.7 |
| 20260504221042 | 75 | 157 | 1.0 | 8.0 | 0.00 | 0.00 | 0.00 | 39 | 1012.8 |
| 20260504220538 | 75 | 199 | 2.0 | 11.0 | 0.00 | 0.00 | 0.00 | 39 | 1012.8 |
| 20260504220050 | 76 | 205 | 1.0 | 11.0 | 0.00 | 0.00 | 0.00 | 38 | 1012.8 |
| 20260504215538 | 77 | 182 | 1.0 | 8.0 | 0.00 | 0.00 | 0.00 | 37 | 1012.8 |
| 20260504215038 | 77 | 0 | 0.0 | 10.0 | 0.00 | 0.00 | 0.00 | 37 | 1012.9 |
| 20260504214546 | 78 | 355 | 0.0 | 10.0 | 0.00 | 0.00 | 0.00 | 38 | 1012.8 |
| 20260504214041 | 78 | 219 | 1.0 | 7.0 | 0.00 | 0.00 | 0.00 | 38 | 1012.8 |
| 20260504213538 | 78 | 0 | 1.0 | 12.0 | 0.00 | 0.00 | 0.00 | 38 | 1012.7 |
| 20260504213053 | 78 | 205 | 2.0 | 12.0 | 0.00 | 0.00 | 0.00 | 38 | 1012.7 |
| 20260504212538 | 78 | 207 | 1.0 | 10.0 | 0.00 | 0.00 | 0.00 | 38 | 1012.9 |
| 20260504212038 | 78 | 259 | 1.0 | 7.0 | 0.00 | 0.00 | 0.00 | 37 | 1012.8 |
| 20260504211549 | 79 | 163 | 1.0 | 9.0 | 0.00 | 0.00 | 0.00 | 37 | 1012.9 |
| 20260504211038 | 79 | 145 | 0.0 | 9.0 | 0.00 | 0.00 | 0.00 | 36 | 1012.8 |
| 20260504210538 | 79 | 338 | 0.0 | 9.0 | 0.00 | 0.00 | 0.00 | 39 | 1012.9 |
| 20260504210051 | 79 | 0 | 1.0 | 9.0 | 0.00 | 0.00 | 0.00 | 38 | 1013.0 |
| 20260504205538 | 79 | 194 | 1.0 | 9.0 | 0.00 | 0.00 | 0.00 | 39 | 1013.0 |
| 20260504205042 | 80 | 199 | 1.0 | 9.0 | 0.00 | 0.00 | 0.00 | 38 | 1013.0 |
| 20260504204550 | 80 | 0 | 2.0 | 9.0 | 0.00 | 0.00 | 0.00 | 40 | 1013.2 |
| 20260504204038 | 80 | 243 | 1.0 | 8.0 | 0.00 | 0.00 | 0.00 | 38 | 1013.2 |
| 20260504203538 | 80 | 267 | 1.0 | 8.0 | 0.00 | 0.00 | 0.00 | 37 | 1013.3 |
| 20260504203104 | 80 | 253 | 0.0 | 8.0 | 0.00 | 0.00 | 0.00 | 36 | 1013.2 |
| 20260504202538 | 80 | 158 | 2.0 | 9.0 | 0.00 | 0.00 | 0.00 | 36 | 1013.4 |
| 20260504202043 | 81 | 254 | 1.0 | 9.0 | 0.00 | 0.00 | 0.00 | 38 | 1013.3 |
| 20260504201554 | 81 | 304 | 0.0 | 6.0 | 0.00 | 0.00 | 0.00 | 37 | 1013.6 |
| 20260504201039 | 81 | 114 | 1.0 | 6.0 | 0.00 | 0.00 | 0.00 | 36 | 1013.7 |
| 20260504200540 | 81 | 229 | 0.0 | 7.0 | 0.00 | 0.00 | 0.00 | 37 | 1013.6 |
| 20260504200051 | 81 | 0 | 2.0 | 7.0 | 0.00 | 0.00 | 0.00 | 38 | 1013.6 |
| 20260504195538 | 81 | 267 | 0.0 | 5.0 | 0.00 | 0.00 | 0.00 | 39 | 1013.9 |
| 20260504195038 | 81 | 229 | 1.0 | 5.0 | 0.00 | 0.00 | 0.00 | 38 | 1013.8 |
| 20260504194542 | 81 | 0 | 0.0 | 7.0 | 0.00 | 0.00 | 0.00 | 39 | 1013.9 |
| 20260504194040 | 80 | 148 | 1.0 | 7.0 | 0.00 | 0.00 | 0.00 | 39 | 1013.9 |
| 20260504193542 | 81 | 247 | 2.0 | 7.0 | 0.00 | 0.00 | 0.00 | 38 | 1014.0 |
| 20260504193048 | 81 | 0 | 2.0 | 5.0 | 0.00 | 0.00 | 0.00 | 38 | 1014.1 |
| 20260504192539 | 81 | 0 | 1.0 | 5.0 | 0.00 | 0.00 | 0.00 | 39 | 1014.2 |
| 20260504192038 | 80 | 0 | 0.0 | 4.0 | 0.00 | 0.00 | 0.00 | 37 | 1014.3 |
| 20260504191556 | 80 | 234 | 0.0 | 5.0 | 0.00 | 0.00 | 0.00 | 39 | 1014.3 |
| 20260504191038 | 80 | 0 | 0.0 | 8.0 | 0.00 | 0.00 | 0.00 | 41 | 1014.5 |
| 20260504190538 | 80 | 0 | 1.0 | 8.0 | 0.00 | 0.00 | 0.00 | 39 | 1014.5 |
| 20260504190048 | 79 | 177 | 1.0 | 7.0 | 0.00 | 0.00 | 0.00 | 37 | 1014.5 |
| 20260504185539 | 79 | 0 | 1.0 | 8.0 | 0.00 | 0.00 | 0.00 | 38 | 1014.5 |
| 20260504185038 | 79 | 0 | 1.0 | 8.0 | 0.00 | 0.00 | 0.00 | 39 | 1014.8 |
| 20260504184543 | 79 | 188 | 1.0 | 7.0 | 0.00 | 0.00 | 0.00 | 39 | 1014.9 |
| 20260504184038 | 79 | 0 | 1.0 | 7.0 | 0.00 | 0.00 | 0.00 | 39 | 1014.9 |
| 20260504183539 | 79 | 238 | 0.0 | 9.0 | 0.00 | 0.00 | 0.00 | 39 | 1015.0 |
| 20260504183042 | 79 | 193 | 1.0 | 9.0 | 0.00 | 0.00 | 0.00 | 40 | 1015.1 |
| 20260504182541 | 79 | 0 | 1.0 | 8.0 | 0.00 | 0.00 | 0.00 | 39 | 1015.2 |
| 20260504182038 | 79 | 128 | 0.0 | 9.0 | 0.00 | 0.00 | 0.00 | 40 | 1015.1 |
| 20260504181547 | 79 | 181 | 3.0 | 9.0 | 0.00 | 0.00 | 0.00 | 39 | 1015.3 |
| 20260504181039 | 78 | 205 | 1.0 | 9.0 | 0.00 | 0.00 | 0.00 | 39 | 1015.4 |
| 20260504180539 | 78 | 196 | 1.0 | 9.0 | 0.00 | 0.00 | 0.00 | 40 | 1015.4 |
| 20260504180047 | 78 | 227 | 1.0 | 12.0 | 0.00 | 0.00 | 0.00 | 40 | 1015.5 |
| 20260504175538 | 77 | 188 | 0.0 | 12.0 | 0.00 | 0.00 | 0.00 | 40 | 1015.5 |
| 20260504175038 | 77 | 134 | 2.0 | 12.0 | 0.00 | 0.00 | 0.00 | 39 | 1015.6 |
| 20260504174547 | 78 | 0 | 1.0 | 6.0 | 0.00 | 0.00 | 0.00 | 40 | 1015.6 |
| 20260504174038 | 77 | 0 | 1.0 | 4.0 | 0.00 | 0.00 | 0.00 | 38 | 1015.7 |
| 20260504173537 | 77 | 271 | 0.0 | 5.0 | 0.00 | 0.00 | 0.00 | 39 | 1015.7 |
| 20260504173046 | 76 | 0 | 0.0 | 5.0 | 0.00 | 0.00 | 0.00 | 41 | 1015.8 |
| 20260504172540 | 76 | 0 | 1.0 | 9.0 | 0.00 | 0.00 | 0.00 | 43 | 1015.8 |
| 20260504172038 | 75 | 268 | 1.0 | 11.0 | 0.00 | 0.00 | 0.00 | 41 | 1015.9 |
| 20260504171547 | 75 | 0 | 0.0 | 11.0 | 0.00 | 0.00 | 0.00 | 42 | 1015.9 |
| 20260504171038 | 75 | 0 | 1.0 | 11.0 | 0.00 | 0.00 | 0.00 | 40 | 1015.9 |
| 20260504170538 | 75 | 232 | 0.0 | 6.0 | 0.00 | 0.00 | 0.00 | 42 | 1016.0 |
| 20260504151038 | 67 | 255 | 2.0 | 14.0 | 0.00 | 0.00 | 0.00 | 45 | 1017.6 |
| 20260504151005 | 67 | 258 | 2.0 | 14.0 | 0.00 | 0.00 | 0.00 | 44 | 1017.6 |
| 20260504150538 | 67 | 176 | 2.0 | 10.0 | 0.00 | 0.00 | 0.00 | 45 | 1017.5 |
| 20260504150505 | 67 | 286 | 2.0 | 9.0 | 0.00 | 0.00 | 0.00 | 46 | 1017.6 |
| 20260504141039 | 64 | 252 | 1.0 | 8.0 | 0.00 | 0.00 | 0.00 | 48 | 1018.2 |
| 20260504140539 | 63 | 0 | 1.0 | 7.0 | 0.00 | 0.00 | 0.00 | 48 | 1018.2 |
| 20260504110539 | 45 | 0 | 0.0 | 1.0 | 0.00 | 0.00 | 0.00 | 77 | 1016.9 |
| 20260504110504 | 45 | 0 | 0.0 | 1.0 | 0.00 | 0.00 | 0.00 | 78 | 1016.9 |
| 20260504100537 | 44 | 0 | 0.0 | 0.0 | 0.00 | 0.00 | 0.00 | 79 | 1017.0 |
| 20260504082005 | 60 | 178 | 0.0 | 0.0 | 0.00 | 0.00 | 0.00 | 88 | 1017.5 |
| 20260504081553 | 46 | 0 | 0.0 | 0.0 | 0.00 | 0.00 | 0.00 | 76 | 1017.2 |
| 20260504081038 | 46 | 0 | 0.0 | 0.0 | 0.00 | 0.00 | 0.00 | 76 | 1017.2 |
| 20260504081005 | 60 | 178 | 0.0 | 0.0 | 0.00 | 0.00 | 0.00 | 88 | 1017.5 |
| 20260504080538 | 46 | 0 | 0.0 | 0.0 | 0.00 | 0.00 | 0.00 | 75 | 1017.3 |
| 20260504080505 | 60 | 178 | 0.0 | 0.0 | 0.00 | 0.00 | 0.00 | 88 | 1017.5 |